createdAt,value
2018-02-13T00:00:49.598Z,-0.03
2018-02-13T00:03:20.431Z,0.05
2018-02-13T00:05:51.324Z,-0.02
2018-02-13T00:08:22.073Z,-0.05
2018-02-13T00:10:52.928Z,-0.01
2018-02-13T00:13:23.741Z,-0.04
2018-02-13T00:15:54.581Z,0.02
2018-02-13T00:18:25.393Z,-0.01
2018-02-13T00:20:56.222Z,-0.02
2018-02-13T00:23:27.043Z,-0.07
2018-02-13T00:25:57.903Z,-0.14
2018-02-13T00:28:28.716Z,-0.16
2018-02-13T00:30:59.593Z,-0.15
2018-02-13T00:33:30.465Z,-0.18
2018-02-13T00:36:01.245Z,-0.18
2018-02-13T00:38:32.081Z,-0.14
2018-02-13T00:41:02.925Z,-0.30
2018-02-13T00:43:33.762Z,-0.50
2018-02-13T00:46:04.606Z,-0.70
2018-02-13T00:48:35.429Z,-0.83
2018-02-13T00:51:06.365Z,-0.98
2018-02-13T00:53:37.207Z,-1.12
2018-02-13T00:56:08.027Z,-1.19
2018-02-13T00:58:38.896Z,-1.26
2018-02-13T01:01:09.813Z,-1.23
2018-02-13T01:03:40.651Z,-1.38
2018-02-13T01:06:11.547Z,-1.25
2018-02-13T01:08:42.421Z,-1.19
2018-02-13T01:11:13.233Z,-1.20
2018-02-13T01:13:44.105Z,-1.15
2018-02-13T01:16:14.942Z,-1.07
2018-02-13T01:18:45.781Z,-1.04
2018-02-13T01:21:16.722Z,-0.99
2018-02-13T01:23:47.573Z,-1.03
2018-02-13T01:26:18.434Z,-1.06
2018-02-13T01:28:49.242Z,-1.05
2018-02-13T01:31:20.186Z,-1.05
2018-02-13T01:33:51.020Z,-1.09
2018-02-13T01:36:21.891Z,-1.07
2018-02-13T01:38:52.731Z,-0.89
2018-02-13T01:41:23.611Z,-0.85
2018-02-13T01:43:54.446Z,-0.89
2018-02-13T01:46:25.331Z,-0.87
2018-02-13T01:48:56.173Z,-0.83
2018-02-13T01:51:26.994Z,-0.80
2018-02-13T01:53:57.875Z,-0.77
2018-02-13T01:56:28.783Z,-0.73
2018-02-13T01:58:59.596Z,-0.67
2018-02-13T02:01:30.439Z,-0.67
2018-02-13T02:04:01.300Z,-0.66
2018-02-13T02:06:32.153Z,-0.70
2018-02-13T02:09:03.093Z,-0.72
2018-02-13T02:11:33.959Z,-0.67
2018-02-13T02:14:04.800Z,-0.77
2018-02-13T02:16:35.829Z,-0.76
2018-02-13T02:19:06.770Z,-0.78
2018-02-13T02:21:37.614Z,-0.80
2018-02-13T02:24:08.473Z,-0.77
2018-02-13T02:26:40.286Z,-0.82
2018-02-13T02:29:11.114Z,-0.71
2018-02-13T02:31:41.958Z,-0.63
2018-02-13T02:34:14.144Z,-0.63
2018-02-13T02:36:45.778Z,-0.56
2018-02-13T02:39:16.594Z,-0.51
2018-02-13T02:41:47.482Z,-0.52
2018-02-13T02:44:22.097Z,-0.45
2018-02-13T02:46:53.279Z,-0.48
2018-02-13T02:49:24.283Z,-0.53
2018-02-13T02:51:55.130Z,-0.53
2018-02-13T02:54:25.961Z,-0.55
2018-02-13T02:56:56.807Z,-0.53
2018-02-13T02:59:27.608Z,-0.57
2018-02-13T03:01:58.536Z,-0.58
2018-02-13T03:04:29.432Z,-0.63
2018-02-13T03:07:00.326Z,-0.66
2018-02-13T03:09:31.140Z,-0.65
2018-02-13T03:12:02.009Z,-0.73
2018-02-13T03:14:32.833Z,-0.71
2018-02-13T03:17:03.838Z,-0.72
2018-02-13T03:19:34.658Z,-0.79
2018-02-13T03:22:05.701Z,-0.75
2018-02-13T03:24:36.487Z,-0.73
2018-02-13T03:27:07.332Z,-0.76
2018-02-13T03:29:38.151Z,-0.73
2018-02-13T03:32:08.996Z,-0.75
2018-02-13T03:34:39.830Z,-0.83
2018-02-13T03:37:10.669Z,-0.85
2018-02-13T03:39:41.468Z,-0.94
2018-02-13T03:42:12.396Z,-1.02
2018-02-13T03:44:43.253Z,-1.07
2018-02-13T03:47:14.073Z,-1.09
2018-02-13T03:49:44.893Z,-1.05
2018-02-13T03:52:15.769Z,-1.13
2018-02-13T03:54:46.643Z,-1.16
2018-02-13T03:57:17.507Z,-1.19
2018-02-13T03:59:48.390Z,-1.20
2018-02-13T04:02:19.259Z,-1.18
2018-02-13T04:04:50.089Z,-1.13
2018-02-13T04:07:20.909Z,-1.11
2018-02-13T04:09:51.728Z,-1.19
2018-02-13T04:12:22.608Z,-1.29
2018-02-13T04:14:53.434Z,-1.34
2018-02-13T04:17:24.366Z,-1.49
2018-02-13T04:19:55.211Z,-1.38
2018-02-13T04:22:26.074Z,-1.39
2018-02-13T04:24:56.912Z,-1.46
2018-02-13T04:27:27.842Z,-1.51
2018-02-13T04:29:58.641Z,-1.46
2018-02-13T04:32:29.559Z,-1.37
2018-02-13T04:35:00.398Z,-1.30
2018-02-13T04:37:31.285Z,-1.22
2018-02-13T04:40:02.154Z,-1.22
2018-02-13T04:42:32.987Z,-1.21
2018-02-13T04:45:03.851Z,-1.26
2018-02-13T04:47:34.745Z,-1.31
2018-02-13T04:50:05.616Z,-1.33
2018-02-13T04:52:36.488Z,-1.30
2018-02-13T04:55:07.330Z,-1.38
2018-02-13T04:57:44.984Z,-1.38
2018-02-13T05:00:15.862Z,-1.46
2018-02-13T05:02:46.718Z,-1.51
2018-02-13T05:05:17.539Z,-1.40
2018-02-13T05:07:48.447Z,-1.20
2018-02-13T05:10:19.315Z,-1.09
2018-02-13T05:12:50.222Z,-1.03
2018-02-13T05:15:20.995Z,-0.94
2018-02-13T05:17:51.831Z,-0.83
2018-02-13T05:20:22.697Z,-0.77
2018-02-13T05:22:53.553Z,-0.74
2018-02-13T05:25:24.360Z,-0.78
2018-02-13T05:27:55.193Z,-0.73
2018-02-13T05:30:26.014Z,-0.70
2018-02-13T05:32:56.861Z,-0.75
2018-02-13T05:35:27.747Z,-0.72
2018-02-13T05:37:58.593Z,-0.62
2018-02-13T05:40:36.361Z,-0.61
2018-02-13T05:43:07.259Z,-0.63
2018-02-13T05:45:38.070Z,-0.68
2018-02-13T05:48:08.932Z,-0.66
2018-02-13T05:50:39.780Z,-0.69
2018-02-13T05:53:10.629Z,-0.63
2018-02-13T05:55:41.452Z,-0.70
2018-02-13T05:58:12.271Z,-0.66
2018-02-13T06:00:43.115Z,-0.66
2018-02-13T06:03:13.968Z,-0.71
2018-02-13T06:05:44.785Z,-0.62
2018-02-13T06:08:15.626Z,-0.70
2018-02-13T06:10:46.536Z,-0.68
2018-02-13T06:13:17.392Z,-0.76
2018-02-13T06:15:48.231Z,-0.70
2018-02-13T06:18:19.106Z,-0.73
2018-02-13T06:20:49.968Z,-0.68
2018-02-13T06:23:20.758Z,-0.71
2018-02-13T06:25:51.574Z,-0.69
2018-02-13T06:28:22.408Z,-0.57
2018-02-13T06:30:53.245Z,-0.60
2018-02-13T06:33:24.082Z,-0.53
2018-02-13T06:35:54.932Z,-0.45
2018-02-13T06:38:25.860Z,-0.42
2018-02-13T06:40:56.834Z,-0.43
2018-02-13T06:43:27.673Z,-0.41
2018-02-13T06:45:58.520Z,-0.43
2018-02-13T06:48:29.363Z,-0.46
2018-02-13T06:51:00.197Z,-0.49
2018-02-13T06:53:31.061Z,-0.53
2018-02-13T06:56:01.859Z,-0.49
2018-02-13T06:58:32.774Z,-0.53
2018-02-13T07:01:03.610Z,-0.57
2018-02-13T07:03:34.460Z,-0.63
2018-02-13T07:06:05.309Z,-0.43
2018-02-13T07:08:36.206Z,-0.32
2018-02-13T07:11:07.073Z,-0.28
2018-02-13T07:13:37.955Z,-0.16
2018-02-13T07:16:08.827Z,-0.06
2018-02-13T07:18:39.795Z,-0.04
2018-02-13T07:21:10.649Z,0.00
2018-02-13T07:23:41.565Z,-0.07
2018-02-13T07:26:12.391Z,0.01
2018-02-13T07:28:43.303Z,0.11
2018-02-13T07:31:14.172Z,0.17
2018-02-13T07:33:45.001Z,0.15
2018-02-13T07:36:15.926Z,0.08
2018-02-13T07:38:46.855Z,0.08
2018-02-13T07:41:17.723Z,0.11
2018-02-13T07:43:48.579Z,0.07
2018-02-13T07:46:19.407Z,-0.12
2018-02-13T07:48:50.273Z,-0.07
2018-02-13T07:51:21.999Z,0.03
2018-02-13T07:53:52.970Z,0.13
2018-02-13T07:56:23.864Z,0.10
2018-02-13T07:58:55.529Z,0.16
2018-02-13T08:01:26.394Z,0.12
2018-02-13T08:03:57.260Z,0.09
2018-02-13T08:06:28.129Z,0.03
2018-02-13T08:08:58.977Z,-0.01
2018-02-13T08:11:29.806Z,-0.07
2018-02-13T08:14:00.656Z,-0.16
2018-02-13T08:16:31.578Z,-0.24
2018-02-13T08:19:02.494Z,-0.10
2018-02-13T08:21:33.498Z,0.07
2018-02-13T08:24:04.516Z,0.00
2018-02-13T08:26:35.457Z,0.00
2018-02-13T08:29:06.369Z,-0.01
2018-02-13T08:31:38.306Z,0.15
2018-02-13T08:34:09.175Z,0.35
2018-02-13T08:36:39.992Z,0.41
2018-02-13T08:39:10.857Z,0.47
2018-02-13T08:41:41.694Z,0.20
2018-02-13T08:44:12.555Z,0.36
2018-02-13T08:46:43.392Z,0.37
2018-02-13T08:49:14.271Z,0.26
2018-02-13T08:51:45.101Z,0.25
2018-02-13T08:54:16.180Z,0.36
2018-02-13T08:56:47.037Z,0.28
2018-02-13T08:59:17.921Z,0.17
2018-02-13T09:01:48.764Z,0.34
2018-02-13T09:04:19.658Z,0.41
2018-02-13T09:06:50.540Z,0.53
2018-02-13T09:09:21.394Z,0.16
2018-02-13T09:11:52.357Z,0.65
2018-02-13T09:14:23.192Z,1.02
2018-02-13T09:16:54.047Z,0.95
2018-02-13T09:19:24.940Z,0.90
2018-02-13T09:21:55.756Z,0.85
2018-02-13T09:24:26.650Z,1.19
2018-02-13T09:26:57.552Z,1.77
2018-02-13T09:29:28.396Z,2.79
2018-02-13T09:31:59.302Z,3.18
2018-02-13T09:34:30.243Z,3.25
2018-02-13T09:37:01.109Z,2.63
2018-02-13T09:39:31.943Z,2.94
2018-02-13T09:42:02.850Z,2.97
2018-02-13T09:44:33.821Z,2.84
2018-02-13T09:47:04.863Z,2.39
2018-02-13T09:49:35.736Z,2.16
2018-02-13T09:52:06.687Z,2.23
2018-02-13T09:54:37.659Z,2.25
2018-02-13T09:57:08.622Z,2.59
2018-02-13T09:59:39.542Z,2.82
2018-02-13T10:02:10.412Z,2.79
2018-02-13T10:04:41.337Z,3.16
2018-02-13T10:07:12.321Z,3.29
2018-02-13T10:09:43.187Z,3.60
2018-02-13T10:12:14.057Z,3.50
2018-02-13T10:14:44.960Z,3.43
2018-02-13T10:17:17.980Z,3.75
2018-02-13T10:19:50.960Z,3.93
2018-02-13T10:22:21.941Z,3.28
2018-02-13T10:24:53.902Z,3.36
2018-02-13T10:27:24.845Z,3.72
2018-02-13T10:29:55.709Z,4.11
2018-02-13T10:32:26.598Z,4.00
2018-02-13T10:34:57.593Z,4.08
2018-02-13T10:37:28.546Z,3.93
2018-02-13T10:39:59.345Z,4.00
2018-02-13T10:42:31.288Z,4.62
2018-02-13T10:45:02.292Z,4.58
2018-02-13T10:47:33.330Z,4.25
2018-02-13T10:50:04.258Z,4.66
2018-02-13T10:52:35.156Z,4.97
2018-02-13T10:55:06.035Z,4.79
2018-02-13T10:57:36.875Z,4.30
2018-02-13T11:00:07.762Z,4.04
2018-02-13T11:02:38.639Z,4.37
2018-02-13T11:05:09.503Z,4.06
2018-02-13T11:07:41.138Z,4.21
2018-02-13T11:10:11.997Z,4.60
2018-02-13T11:12:42.881Z,4.25
2018-02-13T11:15:13.741Z,4.25
2018-02-13T11:17:44.682Z,4.45
2018-02-13T11:20:15.619Z,4.07
2018-02-13T11:22:46.511Z,3.96
2018-02-13T11:25:17.329Z,3.87
2018-02-13T11:27:48.137Z,4.02
2018-02-13T11:30:19.952Z,4.58
2018-02-13T11:32:50.872Z,4.88
2018-02-13T11:35:22.818Z,4.82
2018-02-13T11:37:53.663Z,5.25
2018-02-13T11:40:25.542Z,5.79
2018-02-13T11:42:56.381Z,5.98
2018-02-13T11:45:28.286Z,6.08
2018-02-13T11:47:59.180Z,6.30
2018-02-13T11:50:30.011Z,6.93
2018-02-13T11:53:00.925Z,7.29
2018-02-13T11:55:31.826Z,6.85
2018-02-13T11:58:03.725Z,6.57
2018-02-13T12:00:34.648Z,6.45
2018-02-13T12:03:05.475Z,6.26
2018-02-13T12:05:36.361Z,6.16
2018-02-13T12:08:07.314Z,6.70
2018-02-13T12:10:38.185Z,6.70
2018-02-13T12:13:11.130Z,6.70
2018-02-13T12:15:42.102Z,6.96
2018-02-13T12:18:12.949Z,6.60
2018-02-13T12:20:43.799Z,5.87
2018-02-13T12:23:14.710Z,5.82
2018-02-13T12:25:45.555Z,5.20
2018-02-13T12:28:16.397Z,5.32
2018-02-13T12:30:48.344Z,4.75
2018-02-13T12:33:19.211Z,4.62
2018-02-13T12:35:50.128Z,4.63
2018-02-13T12:38:21.077Z,4.80
2018-02-13T12:40:52.074Z,4.81
2018-02-13T12:43:22.979Z,4.23
2018-02-13T12:45:53.801Z,4.59
2018-02-13T12:48:24.681Z,4.96
2018-02-13T12:50:55.541Z,4.99
2018-02-13T12:53:26.443Z,5.02
2018-02-13T12:55:57.319Z,5.43
2018-02-13T12:58:28.342Z,5.28
2018-02-13T13:00:59.223Z,4.70
2018-02-13T13:03:30.076Z,4.75
2018-02-13T13:06:00.894Z,4.76
2018-02-13T13:08:31.837Z,4.83
2018-02-13T13:11:02.692Z,4.70
2018-02-13T13:13:33.589Z,4.69
2018-02-13T13:16:04.445Z,4.77
2018-02-13T13:18:35.426Z,5.00
2018-02-13T13:21:06.433Z,4.83
2018-02-13T13:23:37.309Z,5.02
2018-02-13T13:26:08.151Z,5.03
2018-02-13T13:28:40.132Z,5.02
2018-02-13T13:31:11.014Z,5.26
2018-02-13T13:33:41.893Z,5.01
2018-02-13T13:36:13.850Z,5.23
2018-02-13T13:38:44.690Z,4.92
2018-02-13T13:41:15.603Z,5.30
2018-02-13T13:43:46.560Z,5.29
2018-02-13T13:46:17.587Z,5.57
2018-02-13T13:48:49.510Z,6.01
2018-02-13T13:51:20.405Z,6.26
2018-02-13T13:53:51.621Z,6.54
2018-02-13T13:56:22.466Z,6.54
2018-02-13T13:58:53.362Z,7.12
2018-02-13T14:01:24.305Z,7.65
2018-02-13T14:03:55.143Z,7.98
2018-02-13T14:06:25.982Z,8.91
2018-02-13T14:08:56.823Z,8.43
2018-02-13T14:11:29.714Z,8.59
2018-02-13T14:14:00.564Z,9.84
2018-02-13T14:16:31.484Z,8.86
2018-02-13T14:19:03.267Z,8.05
2018-02-13T14:21:34.128Z,8.90
2018-02-13T14:24:06.057Z,9.10
2018-02-13T14:26:37.020Z,8.75
2018-02-13T14:29:07.986Z,9.02
2018-02-13T14:31:38.874Z,7.95
2018-02-13T14:34:09.896Z,7.37
2018-02-13T14:36:41.345Z,7.51
2018-02-13T14:39:12.313Z,7.16
2018-02-13T14:41:43.129Z,6.16
2018-02-13T14:44:13.959Z,5.31
2018-02-13T14:46:44.881Z,5.22
2018-02-13T14:49:17.742Z,4.91
2018-02-13T14:51:48.564Z,4.94
2018-02-13T14:54:19.401Z,4.72
2018-02-13T14:56:50.250Z,4.65
2018-02-13T14:59:21.118Z,4.57
2018-02-13T15:01:51.975Z,4.10
2018-02-13T15:04:22.848Z,3.99
2018-02-13T15:06:53.748Z,3.56
2018-02-13T15:09:24.639Z,3.35
2018-02-13T15:11:55.475Z,3.28
2018-02-13T15:14:27.516Z,3.27
2018-02-13T15:17:08.320Z,3.35
2018-02-13T15:19:39.975Z,3.40
2018-02-13T15:22:12.848Z,3.52
2018-02-13T15:24:43.907Z,3.51
2018-02-13T15:27:15.087Z,3.30
2018-02-13T15:29:46.267Z,3.46
2018-02-13T15:32:17.840Z,3.52
2018-02-13T15:34:48.886Z,3.50
2018-02-13T15:37:20.130Z,3.39
2018-02-13T15:39:55.218Z,3.15
2018-02-13T15:42:26.159Z,2.85
2018-02-13T15:44:57.029Z,2.64
2018-02-13T15:47:27.869Z,2.47
2018-02-13T15:50:05.694Z,2.31
2018-02-13T15:52:36.575Z,2.24
2018-02-13T15:55:07.481Z,2.16
2018-02-13T15:57:38.332Z,2.08
2018-02-13T16:00:09.270Z,1.98
2018-02-13T16:02:40.188Z,1.89
2018-02-13T16:05:11.154Z,1.82
2018-02-13T16:07:41.998Z,1.72
2018-02-13T16:10:12.925Z,1.62
2018-02-13T16:12:44.695Z,1.60
2018-02-13T16:15:15.621Z,1.47
2018-02-13T16:17:46.482Z,1.35
2018-02-13T16:20:17.347Z,1.30
2018-02-13T16:22:48.222Z,1.24
2018-02-13T16:25:19.217Z,1.02
2018-02-13T16:27:50.108Z,1.03
2018-02-13T16:30:20.992Z,0.89
2018-02-13T16:32:51.885Z,0.79
2018-02-13T16:35:22.757Z,0.71
2018-02-13T16:37:53.660Z,0.61
2018-02-13T16:40:24.606Z,0.57
2018-02-13T16:42:55.478Z,0.43
2018-02-13T16:45:26.421Z,0.43
2018-02-13T16:47:57.481Z,0.39
2018-02-13T16:50:30.410Z,0.31
2018-02-13T16:53:01.341Z,0.23
2018-02-13T16:55:32.256Z,0.18
2018-02-13T16:58:03.126Z,0.10
2018-02-13T17:00:33.989Z,-0.07
2018-02-13T17:03:04.846Z,-0.18
2018-02-13T17:05:37.707Z,-0.32
2018-02-13T17:08:08.597Z,-0.46
2018-02-13T17:10:39.487Z,-0.58
2018-02-13T17:13:10.428Z,-0.73
2018-02-13T17:15:41.265Z,-0.83
2018-02-13T17:18:12.141Z,-0.95
2018-02-13T17:20:42.996Z,-0.87
2018-02-13T17:23:14.896Z,-0.83
2018-02-13T17:25:45.700Z,-0.84
2018-02-13T17:28:16.616Z,-0.82
2018-02-13T17:30:47.540Z,-0.88
2018-02-13T17:33:18.425Z,-0.89
2018-02-13T17:35:49.386Z,-1.00
2018-02-13T17:38:20.286Z,-1.15
2018-02-13T17:40:51.128Z,-1.27
2018-02-13T17:43:22.001Z,-1.34
2018-02-13T17:45:52.816Z,-1.20
2018-02-13T17:48:23.669Z,-1.16
2018-02-13T17:50:54.479Z,-1.12
2018-02-13T17:53:25.406Z,-1.15
2018-02-13T17:55:56.274Z,-1.07
2018-02-13T17:58:27.129Z,-1.15
2018-02-13T18:00:57.960Z,-1.10
2018-02-13T18:03:28.860Z,-1.08
2018-02-13T18:05:59.795Z,-1.13
2018-02-13T18:08:30.671Z,-1.12
2018-02-13T18:11:01.474Z,-1.14
2018-02-13T18:13:32.344Z,-1.22
2018-02-13T18:16:03.179Z,-1.22
2018-02-13T18:18:37.805Z,-1.19
2018-02-13T18:21:08.632Z,-1.11
2018-02-13T18:23:39.516Z,-1.15
2018-02-13T18:26:10.351Z,-1.16
2018-02-13T18:28:41.312Z,-1.20
2018-02-13T18:31:12.162Z,-1.35
2018-02-13T18:33:42.966Z,-1.41
2018-02-13T18:36:13.783Z,-1.46
2018-02-13T18:38:44.601Z,-1.49
2018-02-13T18:41:15.439Z,-1.33
2018-02-13T18:43:46.263Z,-1.30
2018-02-13T18:46:17.149Z,-1.41
2018-02-13T18:48:47.990Z,-1.45
2018-02-13T18:51:18.822Z,-1.59
2018-02-13T18:53:49.709Z,-1.70
2018-02-13T18:56:20.602Z,-1.76
2018-02-13T18:58:51.471Z,-1.78
2018-02-13T19:01:22.366Z,-1.83
2018-02-13T19:03:53.274Z,-1.86
2018-02-13T19:06:24.148Z,-1.86
2018-02-13T19:08:55.020Z,-1.80
2018-02-13T19:11:25.863Z,-1.67
2018-02-13T19:13:56.768Z,-2.08
2018-02-13T19:16:27.662Z,-2.05
2018-02-13T19:18:58.498Z,-2.07
2018-02-13T19:21:29.493Z,-2.17
2018-02-13T19:24:00.519Z,-2.28
2018-02-13T19:26:31.368Z,-2.27
2018-02-13T19:29:02.257Z,-2.42
2018-02-13T19:31:33.268Z,-2.33
2018-02-13T19:34:04.169Z,-2.38
2018-02-13T19:36:35.121Z,-2.47
2018-02-13T19:39:05.952Z,-2.52
2018-02-13T19:41:36.845Z,-2.55
2018-02-13T19:44:07.740Z,-2.45
2018-02-13T19:46:38.619Z,-2.46
2018-02-13T19:49:09.561Z,-2.61
2018-02-13T19:51:40.397Z,-2.72
2018-02-13T19:54:11.262Z,-2.73
2018-02-13T19:56:42.137Z,-2.82
2018-02-13T19:59:13.045Z,-2.90
2018-02-13T20:01:43.917Z,-2.88
2018-02-13T20:04:15.803Z,-3.04
2018-02-13T20:06:46.644Z,-2.96
2018-02-13T20:09:17.523Z,-2.89
2018-02-13T20:11:48.361Z,-2.97
2018-02-13T20:14:19.188Z,-3.08
2018-02-13T20:16:50.084Z,-3.01
2018-02-13T20:19:20.890Z,-3.02
2018-02-13T20:21:51.681Z,-3.03
2018-02-13T20:24:22.536Z,-2.80
2018-02-13T20:26:53.385Z,-2.71
2018-02-13T20:29:24.219Z,-2.91
2018-02-13T20:31:55.038Z,-3.01
2018-02-13T20:34:25.878Z,-3.06
2018-02-13T20:36:56.717Z,-3.15
2018-02-13T20:39:27.532Z,-3.10
2018-02-13T20:41:58.374Z,-3.08
2018-02-13T20:44:29.210Z,-3.11
2018-02-13T20:47:00.080Z,-3.11
2018-02-13T20:49:30.910Z,-3.24
2018-02-13T20:52:01.746Z,-3.34
2018-02-13T20:54:32.628Z,-3.37
2018-02-13T20:57:03.524Z,-3.37
2018-02-13T20:59:34.347Z,-3.46
2018-02-13T21:02:05.163Z,-3.55
2018-02-13T21:04:36.154Z,-3.61
2018-02-13T21:07:07.017Z,-3.62
2018-02-13T21:09:37.940Z,-3.60
2018-02-13T21:12:08.754Z,-3.71
2018-02-13T21:14:39.589Z,-3.58
2018-02-13T21:17:10.363Z,-3.51
2018-02-13T21:19:41.191Z,-3.52
2018-02-13T21:22:12.017Z,-3.51
2018-02-13T21:24:42.846Z,-3.53
2018-02-13T21:27:13.678Z,-3.50
2018-02-13T21:29:44.549Z,-3.49
2018-02-13T21:32:15.381Z,-3.46
2018-02-13T21:34:46.242Z,-3.59
2018-02-13T21:37:17.077Z,-3.59
2018-02-13T21:39:47.900Z,-3.62
2018-02-13T21:42:18.780Z,-3.70
2018-02-13T21:44:49.681Z,-3.74
2018-02-13T21:47:20.525Z,-3.71
2018-02-13T21:49:52.400Z,-3.74
2018-02-13T21:52:23.381Z,-3.82
2018-02-13T21:54:55.278Z,-3.69
2018-02-13T21:57:27.160Z,-3.73
2018-02-13T21:59:59.008Z,-3.82
2018-02-13T22:02:29.845Z,-3.80
2018-02-13T22:05:01.725Z,-3.87
2018-02-13T22:07:32.562Z,-3.78
2018-02-13T22:10:03.434Z,-3.92
2018-02-13T22:12:34.248Z,-4.06
2018-02-13T22:15:05.120Z,-4.02
2018-02-13T22:17:36.016Z,-3.99
2018-02-13T22:20:06.869Z,-4.03
2018-02-13T22:22:37.730Z,-4.06
2018-02-13T22:25:08.654Z,-4.02
2018-02-13T22:27:39.629Z,-4.08
2018-02-13T22:30:10.580Z,-4.11
2018-02-13T22:32:42.542Z,-4.15
2018-02-13T22:35:14.251Z,-4.24
2018-02-13T22:37:45.094Z,-4.30
2018-02-13T22:40:16.161Z,-4.40
2018-02-13T22:42:47.020Z,-4.34
2018-02-13T22:45:17.915Z,-4.33
2018-02-13T22:47:48.758Z,-4.42
2018-02-13T22:50:19.668Z,-4.54
2018-02-13T22:52:50.632Z,-4.66
2018-02-13T22:55:21.444Z,-4.59
2018-02-13T22:57:52.269Z,-4.66
2018-02-13T23:00:25.216Z,-4.66
2018-02-13T23:02:56.065Z,-4.56
2018-02-13T23:05:26.908Z,-4.41
2018-02-13T23:07:57.821Z,-4.48
2018-02-13T23:10:28.721Z,-4.49
2018-02-13T23:12:59.601Z,-4.56
2018-02-13T23:15:30.443Z,-4.44
2018-02-13T23:18:01.271Z,-4.60
2018-02-13T23:20:32.612Z,-4.59
2018-02-13T23:23:03.473Z,-4.57
2018-02-13T23:25:36.378Z,-4.34
2018-02-13T23:28:20.888Z,-4.38
2018-02-13T23:30:52.530Z,-4.53
2018-02-13T23:33:23.441Z,-4.65
2018-02-13T23:35:54.602Z,-4.80
2018-02-13T23:38:25.650Z,-4.86
2018-02-13T23:40:56.800Z,-4.82
2018-02-13T23:46:05.698Z,-4.70
2018-02-13T23:48:36.579Z,-4.57
2018-02-13T23:51:08.056Z,-4.52
2018-02-13T23:53:39.251Z,-4.39
2018-02-13T23:56:10.354Z,-4.40
2018-02-13T23:58:41.577Z,-4.55
